createdAt,value
2022-09-29T00:01:48.682Z,0
2022-09-29T00:03:28.465Z,0
2022-09-29T00:05:08.201Z,0
2022-09-29T00:06:47.967Z,0
2022-09-29T00:08:27.759Z,0
2022-09-29T00:10:07.492Z,0
2022-09-29T00:11:47.265Z,0
2022-09-29T00:13:27.043Z,0
2022-09-29T00:15:06.796Z,0
2022-09-29T00:16:46.544Z,0
2022-09-29T00:18:26.333Z,0
2022-09-29T00:20:06.100Z,0
2022-09-29T00:21:45.840Z,0
2022-09-29T00:23:25.626Z,0
2022-09-29T00:25:05.366Z,0
2022-09-29T00:26:45.150Z,0
2022-09-29T00:28:24.941Z,0
2022-09-29T00:30:04.657Z,0
2022-09-29T00:31:44.511Z,0
2022-09-29T00:33:24.198Z,0
2022-09-29T00:35:03.979Z,0
2022-09-29T00:36:43.743Z,0
2022-09-29T00:41:43.045Z,0
2022-09-29T00:45:02.551Z,0
2022-09-29T00:46:42.334Z,0
2022-09-29T00:50:01.828Z,0
2022-09-29T00:51:41.598Z,0
2022-09-29T00:55:01.151Z,0
2022-09-29T00:56:41.033Z,0
2022-09-29T00:58:20.653Z,0
2022-09-29T01:00:00.416Z,0
2022-09-29T01:01:40.203Z,0
2022-09-29T01:03:19.938Z,0
2022-09-29T01:04:59.761Z,0
2022-09-29T01:06:39.550Z,0
2022-09-29T01:08:19.222Z,0
2022-09-29T01:11:38.756Z,0
2022-09-29T01:13:18.529Z,0
2022-09-29T01:14:58.318Z,0
2022-09-29T01:16:38.054Z,0
2022-09-29T01:18:17.881Z,0
2022-09-29T01:21:37.331Z,0
2022-09-29T01:23:17.133Z,0
2022-09-29T01:24:56.868Z,0
2022-09-29T01:26:36.702Z,0
2022-09-29T01:28:16.447Z,0
2022-09-29T01:31:35.970Z,0
2022-09-29T01:34:55.524Z,0
2022-09-29T01:36:35.223Z,0
2022-09-29T01:38:14.975Z,0
2022-09-29T01:39:54.750Z,0
2022-09-29T01:41:34.503Z,0
2022-09-29T01:43:14.266Z,0
2022-09-29T01:44:54.071Z,0
2022-09-29T01:46:33.841Z,0
2022-09-29T01:48:13.560Z,0
2022-09-29T01:49:53.382Z,0
2022-09-29T01:51:33.089Z,0
2022-09-29T01:53:12.859Z,0
2022-09-29T01:54:52.641Z,0
2022-09-29T01:56:32.380Z,0
2022-09-29T01:58:12.157Z,0
2022-09-29T02:04:51.198Z,0
2022-09-29T02:06:31.004Z,0
2022-09-29T02:08:10.726Z,0
2022-09-29T02:09:50.500Z,0
2022-09-29T02:11:30.245Z,0
2022-09-29T02:13:10.019Z,0
2022-09-29T02:14:49.808Z,0
2022-09-29T02:16:29.544Z,0
2022-09-29T02:18:09.311Z,0
2022-09-29T02:19:49.153Z,0
2022-09-29T02:21:28.832Z,0
2022-09-29T02:23:08.641Z,0
2022-09-29T02:24:48.355Z,0
2022-09-29T02:26:28.135Z,0
2022-09-29T02:28:07.890Z,0
2022-09-29T02:31:27.432Z,0
2022-09-29T02:34:46.960Z,0
2022-09-29T02:38:06.475Z,0
2022-09-29T02:39:46.244Z,0
2022-09-29T02:41:26.005Z,0
2022-09-29T02:44:45.531Z,0
2022-09-29T02:46:25.292Z,0
2022-09-29T02:48:05.069Z,0
2022-09-29T02:49:44.825Z,0
2022-09-29T02:51:24.583Z,0
2022-09-29T02:53:04.359Z,0
2022-09-29T02:54:44.113Z,0
2022-09-29T02:58:03.634Z,0
2022-09-29T02:59:43.417Z,0
2022-09-29T03:01:23.172Z,0
2022-09-29T03:04:42.704Z,0
2022-09-29T03:06:22.491Z,0
2022-09-29T03:08:02.234Z,0
2022-09-29T03:09:41.992Z,0
2022-09-29T03:11:21.745Z,0
2022-09-29T03:13:01.521Z,0
2022-09-29T03:14:41.286Z,0
2022-09-29T03:18:00.813Z,0
2022-09-29T03:19:40.572Z,0
2022-09-29T03:21:20.335Z,0
2022-09-29T03:24:39.860Z,0
2022-09-29T03:26:19.620Z,0
2022-09-29T03:27:59.390Z,0
2022-09-29T03:29:39.168Z,0
2022-09-29T03:31:18.910Z,0
2022-09-29T03:32:58.691Z,0
2022-09-29T03:34:38.455Z,0
2022-09-29T03:36:18.258Z,0
2022-09-29T03:37:58.093Z,0
2022-09-29T03:41:17.683Z,0
2022-09-29T03:42:57.270Z,0
2022-09-29T03:44:37.151Z,0
2022-09-29T03:46:16.916Z,0
2022-09-29T03:47:56.670Z,0
2022-09-29T03:49:36.394Z,0
2022-09-29T03:51:16.119Z,0
2022-09-29T03:54:35.624Z,0
2022-09-29T03:56:15.378Z,0
2022-09-29T03:57:55.137Z,0
2022-09-29T03:59:34.924Z,0
2022-09-29T04:01:14.672Z,0
2022-09-29T04:02:54.426Z,0
2022-09-29T04:04:34.227Z,0
2022-09-29T04:06:13.964Z,0
2022-09-29T04:07:53.724Z,0
2022-09-29T04:11:13.248Z,0
2022-09-29T04:12:53.015Z,0
2022-09-29T04:16:12.539Z,0
2022-09-29T04:17:52.317Z,0
2022-09-29T04:21:11.841Z,0
2022-09-29T04:22:51.603Z,0
2022-09-29T04:24:31.360Z,0
2022-09-29T04:26:11.116Z,0
2022-09-29T04:27:50.887Z,0
2022-09-29T04:29:30.652Z,0
2022-09-29T04:31:10.410Z,0
2022-09-29T04:32:50.207Z,0
2022-09-29T04:34:29.949Z,0
2022-09-29T04:36:09.712Z,0
2022-09-29T04:37:49.475Z,0
2022-09-29T04:39:29.249Z,0
2022-09-29T04:41:08.991Z,0
2022-09-29T04:44:28.526Z,0
2022-09-29T04:46:08.299Z,0
2022-09-29T04:47:48.084Z,0
2022-09-29T04:51:07.586Z,0
2022-09-29T04:54:27.103Z,0
2022-09-29T04:56:06.884Z,0
2022-09-29T04:57:46.642Z,0
2022-09-29T04:59:26.406Z,0
2022-09-29T05:01:06.164Z,0
2022-09-29T05:04:25.724Z,0
2022-09-29T05:06:05.444Z,0
2022-09-29T05:07:45.215Z,0
2022-09-29T05:09:24.988Z,0
2022-09-29T05:11:04.763Z,0
2022-09-29T05:12:44.504Z,0
2022-09-29T05:14:24.306Z,0
2022-09-29T05:16:04.037Z,0
2022-09-29T05:17:43.795Z,0
2022-09-29T05:19:23.588Z,0
2022-09-29T05:21:03.344Z,0
2022-09-29T05:22:43.092Z,0
2022-09-29T05:24:22.875Z,0
2022-09-29T05:26:02.616Z,0
2022-09-29T05:27:42.385Z,0
2022-09-29T05:31:01.929Z,0
2022-09-29T05:32:41.694Z,0
2022-09-29T05:34:21.460Z,0
2022-09-29T05:36:01.208Z,0
2022-09-29T05:37:40.983Z,0.01
2022-09-29T05:39:20.719Z,0.01
2022-09-29T05:41:00.499Z,0.01
2022-09-29T05:42:40.256Z,0.01
2022-09-29T05:44:20.018Z,0.02
2022-09-29T05:45:59.795Z,0.02
2022-09-29T05:47:39.544Z,0.03
2022-09-29T05:50:59.075Z,0.03
2022-09-29T05:52:38.847Z,0.04
2022-09-29T05:54:18.614Z,0.04
2022-09-29T05:57:38.135Z,0.05
2022-09-29T05:59:17.917Z,0.06
2022-09-29T06:00:57.664Z,0.06
2022-09-29T06:04:17.247Z,0.06
2022-09-29T06:05:56.964Z,0.07
2022-09-29T06:07:36.733Z,0.07
2022-09-29T06:09:16.508Z,0.07
2022-09-29T06:10:56.245Z,0.08
2022-09-29T06:12:36.003Z,0.08
2022-09-29T06:14:15.780Z,0.08
2022-09-29T06:15:55.540Z,0.08
2022-09-29T06:17:35.311Z,0.1
2022-09-29T06:19:15.096Z,0.1
2022-09-29T06:20:54.840Z,0.1
2022-09-29T06:22:34.588Z,0.11
2022-09-29T06:24:14.352Z,0.12
2022-09-29T06:25:54.113Z,0.12
2022-09-29T06:27:33.903Z,0.12
2022-09-29T06:30:53.407Z,0.17
2022-09-29T06:32:33.262Z,0.14
2022-09-29T06:34:13.096Z,0.14
2022-09-29T06:35:52.706Z,0.15
2022-09-29T06:37:32.472Z,0.15
2022-09-29T06:40:52.002Z,0.16
2022-09-29T06:42:31.747Z,0.17
2022-09-29T06:44:11.549Z,0.17
2022-09-29T06:45:51.297Z,0.17
2022-09-29T06:47:31.074Z,0.18
2022-09-29T06:50:50.795Z,0.19
2022-09-29T06:52:30.444Z,0.19
2022-09-29T06:54:10.244Z,0.2
2022-09-29T06:55:49.934Z,0.21
2022-09-29T06:57:29.747Z,0.2
2022-09-29T07:00:49.152Z,0.2
2022-09-29T07:02:28.940Z,0.2
2022-09-29T07:05:48.463Z,0.21
2022-09-29T07:07:28.236Z,0.2
2022-09-29T07:10:47.748Z,0.24
2022-09-29T07:12:27.518Z,0.23
2022-09-29T07:14:07.292Z,0.22
2022-09-29T07:15:47.029Z,0.23
2022-09-29T07:17:26.804Z,0.25
2022-09-29T07:22:26.095Z,0.27
2022-09-29T07:24:05.866Z,0.28
2022-09-29T07:25:45.613Z,0.29
2022-09-29T07:27:25.389Z,0.31
2022-09-29T07:29:05.155Z,0.32
2022-09-29T07:30:44.943Z,0.52
2022-09-29T07:32:24.842Z,0.49
2022-09-29T07:34:04.495Z,0.48
2022-09-29T07:35:44.291Z,0.47
2022-09-29T07:37:23.974Z,0.46
2022-09-29T07:39:03.746Z,0.44
2022-09-29T07:40:43.506Z,0.45
2022-09-29T07:42:23.263Z,0.43
2022-09-29T07:44:03.116Z,0.41
2022-09-29T07:45:42.851Z,0.41
2022-09-29T07:47:22.552Z,0.4
2022-09-29T07:49:02.353Z,0.39
2022-09-29T07:50:42.101Z,0.39
2022-09-29T07:52:21.854Z,0.38
2022-09-29T07:54:01.613Z,0.37
2022-09-29T07:55:41.369Z,0.37
2022-09-29T07:57:21.137Z,0.35
2022-09-29T08:00:40.671Z,0.34
2022-09-29T08:04:00.189Z,0.33
2022-09-29T08:05:40.027Z,0.32
2022-09-29T08:07:19.780Z,0.31
2022-09-29T08:10:39.304Z,0.3
2022-09-29T08:12:19.016Z,0.31
2022-09-29T08:13:58.793Z,0.3
2022-09-29T08:15:38.531Z,0.29
2022-09-29T08:17:18.373Z,0.29
2022-09-29T08:20:37.845Z,0.27
2022-09-29T08:22:17.587Z,0.27
2022-09-29T08:23:57.364Z,0.27
2022-09-29T08:27:17.056Z,0.26
2022-09-29T08:30:36.412Z,0.25
2022-09-29T08:33:55.943Z,0.25
2022-09-29T08:35:35.693Z,0.24
2022-09-29T08:37:15.457Z,0.24
2022-09-29T08:40:34.986Z,0.23
2022-09-29T08:42:14.761Z,0.22
2022-09-29T08:43:54.637Z,0.22
2022-09-29T08:45:34.307Z,0.23
2022-09-29T08:47:14.161Z,0.23
2022-09-29T08:50:33.569Z,0.21
2022-09-29T08:52:13.493Z,0.22
2022-09-29T08:53:53.102Z,0.22
2022-09-29T08:55:32.876Z,0.21
2022-09-29T08:57:12.722Z,0.2
2022-09-29T08:58:52.396Z,0.2
2022-09-29T09:00:32.167Z,0.2
2022-09-29T09:02:11.923Z,0.2
2022-09-29T09:03:51.694Z,0.2
2022-09-29T09:05:31.469Z,0.2
2022-09-29T09:07:11.225Z,0.19
2022-09-29T09:10:30.750Z,0.2
2022-09-29T09:12:10.498Z,0.19
2022-09-29T09:15:30.055Z,0.19
2022-09-29T09:17:09.806Z,0.18
2022-09-29T09:20:29.334Z,0.18
2022-09-29T09:22:09.086Z,0.17
2022-09-29T09:23:48.857Z,0.18
2022-09-29T09:25:28.629Z,0.18
2022-09-29T09:27:08.384Z,0.18
2022-09-29T09:30:27.913Z,0.01
2022-09-29T09:32:07.670Z,0.01
2022-09-29T09:33:47.523Z,0.14
2022-09-29T09:35:27.200Z,0.14
2022-09-29T09:37:07.069Z,0.14
2022-09-29T09:40:26.530Z,0.11
2022-09-29T09:42:06.262Z,0.11
2022-09-29T09:43:46.019Z,0.11
2022-09-29T09:45:25.813Z,0.12
2022-09-29T09:47:05.553Z,0.11
2022-09-29T09:50:25.105Z,0.12
2022-09-29T09:53:44.619Z,0.12
2022-09-29T09:55:24.369Z,0.11
2022-09-29T09:57:04.139Z,0.11
2022-09-29T09:58:43.893Z,0.11
2022-09-29T10:00:23.666Z,0.11
2022-09-29T10:03:43.196Z,0.12
2022-09-29T10:05:22.975Z,0.11
2022-09-29T10:07:02.712Z,0.12
2022-09-29T10:10:22.251Z,0.12
2022-09-29T10:12:02.012Z,0.11
2022-09-29T10:13:41.772Z,0.11
2022-09-29T10:15:21.542Z,0.11
2022-09-29T10:17:01.304Z,0.12
2022-09-29T10:20:20.826Z,0.11
2022-09-29T10:22:00.595Z,0.11
2022-09-29T10:23:40.348Z,0.11
2022-09-29T10:25:20.130Z,0.11
2022-09-29T10:26:59.897Z,0.12
2022-09-29T10:31:59.180Z,0.11
2022-09-29T10:33:38.938Z,0.11
2022-09-29T10:36:58.461Z,0.1
2022-09-29T10:40:17.985Z,0.09
2022-09-29T10:41:57.761Z,0.11
2022-09-29T10:43:37.517Z,0.1
2022-09-29T10:45:17.280Z,0.11
2022-09-29T10:46:57.058Z,0.11
2022-09-29T10:48:36.831Z,0.1
2022-09-29T10:50:16.575Z,0.11
2022-09-29T10:51:56.340Z,0.11
2022-09-29T10:53:36.116Z,0.11
2022-09-29T10:55:15.875Z,0.09
2022-09-29T11:00:15.172Z,0.1
2022-09-29T11:01:54.928Z,0.09
2022-09-29T11:03:34.699Z,0.1
2022-09-29T11:05:14.464Z,0.1
2022-09-29T11:06:54.222Z,0.1
2022-09-29T11:08:33.972Z,0.1
2022-09-29T11:10:13.755Z,0.1
2022-09-29T11:11:53.513Z,0.1
2022-09-29T11:13:33.267Z,0.09
2022-09-29T11:15:13.027Z,0.09
2022-09-29T11:16:52.822Z,0.1
2022-09-29T11:20:12.341Z,0.11
2022-09-29T11:21:52.095Z,0.12
2022-09-29T11:23:31.854Z,0.1
2022-09-29T11:25:11.617Z,0.1
2022-09-29T11:26:51.386Z,0.1
2022-09-29T11:30:10.906Z,0.09
2022-09-29T11:31:50.669Z,0.09
2022-09-29T11:33:30.511Z,0.09
2022-09-29T11:35:10.196Z,0.09
2022-09-29T11:36:49.973Z,0.11
2022-09-29T11:40:09.499Z,0.1
2022-09-29T11:41:49.263Z,0.11
2022-09-29T11:43:29.031Z,0.11
2022-09-29T11:46:48.553Z,0.1
2022-09-29T11:50:08.159Z,0.1
2022-09-29T11:51:47.858Z,0.11
2022-09-29T11:53:27.603Z,0.11
2022-09-29T11:55:07.377Z,0.1
2022-09-29T11:56:47.134Z,0.1
2022-09-29T12:00:06.667Z,0.1
2022-09-29T12:01:46.417Z,0.1
2022-09-29T12:03:26.195Z,0.1
2022-09-29T12:05:05.957Z,0.1
2022-09-29T12:06:45.732Z,0.1
2022-09-29T12:10:05.241Z,0.1
2022-09-29T12:11:45.010Z,0.1
2022-09-29T12:13:24.768Z,0.1
2022-09-29T12:15:04.545Z,0.1
2022-09-29T12:16:44.346Z,0.1
2022-09-29T12:18:24.077Z,0.09
2022-09-29T12:20:03.832Z,0.09
2022-09-29T12:21:43.597Z,0.09
2022-09-29T12:23:23.358Z,0.09
2022-09-29T12:25:03.113Z,0.1
2022-09-29T12:26:42.883Z,0.1
2022-09-29T12:30:02.456Z,0.1
2022-09-29T12:31:42.173Z,0.09
2022-09-29T12:33:21.935Z,0.1
2022-09-29T12:35:01.716Z,0.09
2022-09-29T12:36:41.505Z,0.09
2022-09-29T12:40:01.027Z,0.08
2022-09-29T12:41:40.769Z,0.09
2022-09-29T12:43:20.526Z,0.09
2022-09-29T12:45:00.281Z,0.09
2022-09-29T12:46:40.054Z,0.09
2022-09-29T12:49:59.612Z,0.09
2022-09-29T12:51:39.341Z,0.09
2022-09-29T12:53:19.114Z,0.09
2022-09-29T12:54:58.864Z,0.09
2022-09-29T12:56:38.635Z,0.09
2022-09-29T12:59:58.177Z,0.09
2022-09-29T13:01:37.937Z,0.08
2022-09-29T13:03:17.689Z,0.07
2022-09-29T13:04:57.450Z,0.09
2022-09-29T13:06:37.224Z,0.09
2022-09-29T13:09:56.751Z,0.09
2022-09-29T13:11:36.505Z,0.09
2022-09-29T13:13:16.275Z,0.08
2022-09-29T13:14:56.048Z,0.08
2022-09-29T13:16:35.820Z,0.08
2022-09-29T13:19:55.331Z,0.09
2022-09-29T13:21:35.094Z,0.08
2022-09-29T13:23:14.867Z,0.09
2022-09-29T13:24:54.612Z,0.07
2022-09-29T13:26:34.396Z,0.08
2022-09-29T13:29:53.934Z,0.08
2022-09-29T13:31:33.684Z,0.09
2022-09-29T13:33:13.436Z,0.08
2022-09-29T13:34:53.195Z,0.08
2022-09-29T13:36:32.969Z,0.08
2022-09-29T13:41:32.267Z,0.09
2022-09-29T13:43:12.038Z,0.08
2022-09-29T13:44:51.802Z,0.08
2022-09-29T13:46:31.559Z,0.09
2022-09-29T13:48:11.325Z,0.08
2022-09-29T13:49:51.074Z,0.08
2022-09-29T13:51:30.845Z,0.08
2022-09-29T13:53:10.614Z,0.08
2022-09-29T13:54:50.385Z,0.07
2022-09-29T13:56:30.133Z,0.08
2022-09-29T14:01:29.423Z,0.08
2022-09-29T14:03:09.195Z,0.08
2022-09-29T14:04:48.956Z,0.08
2022-09-29T14:06:28.724Z,0.09
2022-09-29T14:09:48.245Z,0.08
2022-09-29T14:11:28.006Z,0.08
2022-09-29T14:13:07.785Z,0.08
2022-09-29T14:14:47.553Z,0.08
2022-09-29T14:16:27.301Z,0.08
2022-09-29T14:19:46.845Z,0.08
2022-09-29T14:21:26.600Z,0.08
2022-09-29T14:23:06.360Z,0.07
2022-09-29T14:24:46.114Z,0.08
2022-09-29T14:26:25.891Z,0.07
2022-09-29T14:29:45.417Z,0.08
2022-09-29T14:31:25.199Z,0.08
2022-09-29T14:33:04.945Z,0.07
2022-09-29T14:34:44.710Z,0.08
2022-09-29T14:36:24.477Z,0.08
2022-09-29T14:38:04.243Z,0.07
2022-09-29T14:39:43.998Z,0.08
2022-09-29T14:41:23.772Z,0.08
2022-09-29T14:43:03.523Z,0.08
2022-09-29T14:44:43.289Z,0.07
2022-09-29T14:46:23.063Z,0.07
2022-09-29T14:49:42.579Z,0.07
2022-09-29T14:51:22.355Z,0.09
2022-09-29T14:53:02.117Z,0.08
2022-09-29T14:56:21.638Z,0.07
2022-09-29T14:59:41.163Z,0.08
2022-09-29T15:01:20.936Z,0.08
2022-09-29T15:03:00.698Z,0.08
2022-09-29T15:04:40.470Z,0.09
2022-09-29T15:06:20.228Z,0.08
2022-09-29T15:09:39.758Z,0.08
2022-09-29T15:11:19.514Z,0.09
2022-09-29T15:12:59.282Z,0.09
2022-09-29T15:14:39.049Z,0.08
2022-09-29T15:16:18.794Z,0.07
2022-09-29T15:19:38.332Z,0.08
2022-09-29T15:21:18.107Z,0.08
2022-09-29T15:24:37.635Z,0.07
2022-09-29T15:26:17.403Z,0.08
2022-09-29T15:29:36.928Z,0.08
2022-09-29T15:32:56.448Z,0.07
2022-09-29T15:34:36.218Z,0.08
2022-09-29T15:36:15.977Z,0.08
2022-09-29T15:39:35.512Z,0.08
2022-09-29T15:41:15.271Z,0.07
2022-09-29T15:42:55.042Z,0.08
2022-09-29T15:44:34.807Z,0.07
2022-09-29T15:46:14.552Z,0.08
2022-09-29T15:49:34.079Z,0.07
2022-09-29T15:51:13.850Z,0.08
2022-09-29T15:52:53.619Z,0.07
2022-09-29T15:54:33.394Z,0.08
2022-09-29T15:56:13.157Z,0.08
2022-09-29T15:59:32.678Z,0.07
2022-09-29T16:01:12.478Z,0.06
2022-09-29T16:02:52.196Z,0.07
2022-09-29T16:04:31.956Z,0.07
2022-09-29T16:06:11.738Z,0.08
2022-09-29T16:07:51.499Z,0.07
2022-09-29T16:09:31.265Z,0.07
2022-09-29T16:11:11.018Z,0.08
2022-09-29T16:12:50.782Z,0.07
2022-09-29T16:14:30.545Z,0.08
2022-09-29T16:16:10.319Z,0.08
2022-09-29T16:19:29.832Z,0.07
2022-09-29T16:21:09.600Z,0.08
2022-09-29T16:22:49.395Z,0.07
2022-09-29T16:24:29.140Z,0.08
2022-09-29T16:26:08.892Z,0.07
2022-09-29T16:29:28.431Z,0.07
2022-09-29T16:31:08.187Z,0.07
2022-09-29T16:32:47.940Z,0.07
2022-09-29T16:36:07.480Z,0.04
2022-09-29T16:39:27.011Z,0.04
2022-09-29T16:41:06.781Z,0.03
2022-09-29T16:42:46.547Z,0.02
2022-09-29T16:44:26.300Z,0
2022-09-29T16:46:06.054Z,0
2022-09-29T16:47:45.818Z,0
2022-09-29T16:49:25.601Z,0
2022-09-29T16:51:05.346Z,0
2022-09-29T16:52:45.115Z,0
2022-09-29T16:54:24.873Z,0
2022-09-29T16:56:04.730Z,0
2022-09-29T16:59:24.258Z,0
2022-09-29T17:01:03.943Z,0
2022-09-29T17:02:43.710Z,0
2022-09-29T17:04:23.469Z,0
2022-09-29T17:06:03.230Z,0
2022-09-29T17:09:22.791Z,0
2022-09-29T17:11:02.585Z,0
2022-09-29T17:12:42.363Z,0
2022-09-29T17:14:22.199Z,0
2022-09-29T17:16:01.970Z,0
2022-09-29T17:19:21.490Z,0
2022-09-29T17:21:01.221Z,0
2022-09-29T17:22:41.028Z,0
2022-09-29T17:24:20.764Z,0
2022-09-29T17:29:19.965Z,0
2022-09-29T17:30:59.812Z,0
2022-09-29T17:32:39.579Z,0
2022-09-29T17:34:19.348Z,0
2022-09-29T17:35:59.161Z,0
2022-09-29T17:39:18.660Z,0
2022-09-29T17:40:58.435Z,0
2022-09-29T17:42:38.183Z,0
2022-09-29T17:44:17.953Z,0
2022-09-29T17:45:57.589Z,0
2022-09-29T17:49:17.248Z,0
2022-09-29T17:50:56.995Z,0
2022-09-29T17:52:36.767Z,0
2022-09-29T17:54:16.535Z,0
2022-09-29T17:55:56.282Z,0
2022-09-29T17:57:36.057Z,0
2022-09-29T17:59:15.818Z,0
2022-09-29T18:00:55.575Z,0
2022-09-29T18:02:35.335Z,0
2022-09-29T18:04:15.122Z,0
2022-09-29T18:05:54.733Z,0
2022-09-29T18:09:14.412Z,0
2022-09-29T18:10:54.187Z,0
2022-09-29T18:12:33.778Z,0
2022-09-29T18:14:13.704Z,0
2022-09-29T18:15:53.439Z,0
2022-09-29T18:19:12.983Z,0
2022-09-29T18:20:52.840Z,0
2022-09-29T18:22:32.513Z,0
2022-09-29T18:24:12.314Z,0
2022-09-29T18:25:51.896Z,0
2022-09-29T18:29:11.577Z,0
2022-09-29T18:30:51.348Z,0
2022-09-29T18:32:31.112Z,0
2022-09-29T18:34:10.843Z,0
2022-09-29T18:35:50.513Z,0
2022-09-29T18:37:30.251Z,0
2022-09-29T18:39:10.152Z,0
2022-09-29T18:40:49.815Z,0
2022-09-29T18:42:29.645Z,0
2022-09-29T18:44:09.427Z,0
2022-09-29T18:45:49.229Z,0
2022-09-29T18:49:08.582Z,0
2022-09-29T18:50:48.505Z,0
2022-09-29T18:52:28.233Z,0
2022-09-29T18:54:08.042Z,0
2022-09-29T18:55:47.791Z,0
2022-09-29T18:59:07.166Z,0
2022-09-29T19:00:47.081Z,0
2022-09-29T19:02:26.854Z,0
2022-09-29T19:04:06.600Z,0
2022-09-29T19:05:46.374Z,0
2022-09-29T19:09:05.914Z,0
2022-09-29T19:10:45.696Z,0
2022-09-29T19:12:25.441Z,0
2022-09-29T19:14:05.197Z,0
2022-09-29T19:15:44.821Z,0
2022-09-29T19:19:04.494Z,0
2022-09-29T19:20:44.242Z,0
2022-09-29T19:22:24.014Z,0
2022-09-29T19:24:03.772Z,0
2022-09-29T19:25:43.559Z,0
2022-09-29T19:29:03.074Z,0
2022-09-29T19:30:42.689Z,0
2022-09-29T19:32:22.578Z,0
2022-09-29T19:34:02.242Z,0
2022-09-29T19:35:42.129Z,0
2022-09-29T19:39:01.658Z,0
2022-09-29T19:40:41.457Z,0
2022-09-29T19:42:21.185Z,0
2022-09-29T19:44:00.929Z,0
2022-09-29T19:45:40.702Z,0
2022-09-29T19:47:20.472Z,0
2022-09-29T19:49:00.232Z,0
2022-09-29T19:50:39.995Z,0
2022-09-29T19:52:19.771Z,0
2022-09-29T19:53:59.475Z,0
2022-09-29T19:55:39.289Z,0
2022-09-29T19:58:58.832Z,0
2022-09-29T20:02:18.188Z,0
2022-09-29T20:03:58.120Z,0
2022-09-29T20:05:37.795Z,0
2022-09-29T20:08:57.347Z,0
2022-09-29T20:12:16.946Z,0
2022-09-29T20:13:56.703Z,0
2022-09-29T20:15:36.378Z,0
2022-09-29T20:17:16.230Z,0
2022-09-29T20:18:55.986Z,0
2022-09-29T20:20:35.614Z,0
2022-09-29T20:22:15.513Z,0
2022-09-29T20:25:35.019Z,0
2022-09-29T20:28:54.566Z,0
2022-09-29T20:30:34.324Z,0
2022-09-29T20:32:14.084Z,0
2022-09-29T20:33:53.842Z,0
2022-09-29T20:35:33.625Z,0
2022-09-29T20:38:53.004Z,0
2022-09-29T20:40:32.931Z,0
2022-09-29T20:42:12.664Z,0
2022-09-29T20:43:52.437Z,0
2022-09-29T20:45:32.080Z,0
2022-09-29T20:48:51.735Z,0
2022-09-29T20:50:31.504Z,0
2022-09-29T20:52:11.250Z,0
2022-09-29T20:53:51.018Z,0
2022-09-29T20:55:30.776Z,0
2022-09-29T20:58:50.313Z,0
2022-09-29T21:00:30.092Z,0
2022-09-29T21:02:09.872Z,0
2022-09-29T21:03:49.609Z,0
2022-09-29T21:05:29.376Z,0
2022-09-29T21:07:09.137Z,0
2022-09-29T21:08:48.895Z,0
2022-09-29T21:10:28.659Z,0
2022-09-29T21:12:08.368Z,0
2022-09-29T21:13:48.192Z,0
2022-09-29T21:15:27.932Z,0
2022-09-29T21:17:07.631Z,0
2022-09-29T21:18:47.482Z,0
2022-09-29T21:20:27.249Z,0
2022-09-29T21:22:06.978Z,0
2022-09-29T21:23:46.764Z,0
2022-09-29T21:25:26.532Z,0
2022-09-29T21:28:46.063Z,0
2022-09-29T21:30:25.829Z,0
2022-09-29T21:32:05.581Z,0
2022-09-29T21:33:45.382Z,0
2022-09-29T21:35:24.966Z,0
2022-09-29T21:38:44.653Z,0
2022-09-29T21:40:24.410Z,0
2022-09-29T21:42:04.153Z,0
2022-09-29T21:43:43.795Z,0
2022-09-29T21:45:23.627Z,0
2022-09-29T21:48:43.092Z,0
2022-09-29T21:50:22.993Z,0
2022-09-29T21:52:02.606Z,0
2022-09-29T21:53:42.442Z,0
2022-09-29T21:55:22.169Z,0
2022-09-29T21:58:41.689Z,0
2022-09-29T22:00:21.420Z,0
2022-09-29T22:02:01.305Z,0
2022-09-29T22:03:40.959Z,0
2022-09-29T22:05:20.806Z,0
2022-09-29T22:08:40.328Z,0
2022-09-29T22:10:20.096Z,0
2022-09-29T22:11:59.912Z,0
2022-09-29T22:13:39.615Z,0
2022-09-29T22:15:19.379Z,0
2022-09-29T22:18:38.948Z,0
2022-09-29T22:20:18.669Z,0
2022-09-29T22:21:58.469Z,0
2022-09-29T22:23:38.254Z,0
2022-09-29T22:25:17.894Z,0
2022-09-29T22:28:37.436Z,0
2022-09-29T22:30:17.287Z,0
2022-09-29T22:31:57.057Z,0
2022-09-29T22:33:36.815Z,0
2022-09-29T22:35:16.564Z,0
2022-09-29T22:38:36.026Z,0
2022-09-29T22:40:15.890Z,0
2022-09-29T22:41:55.623Z,0
2022-09-29T22:43:35.372Z,0
2022-09-29T22:45:15.153Z,0
2022-09-29T22:48:34.727Z,0
2022-09-29T22:50:14.419Z,0
2022-09-29T22:51:54.099Z,0
2022-09-29T22:53:33.883Z,0
2022-09-29T22:55:13.742Z,0
2022-09-29T22:58:33.162Z,0
2022-09-29T23:00:12.922Z,0
2022-09-29T23:01:52.829Z,0
2022-09-29T23:03:32.458Z,0
2022-09-29T23:05:12.325Z,0
2022-09-29T23:08:31.883Z,0
2022-09-29T23:10:11.616Z,0
2022-09-29T23:11:51.404Z,0
2022-09-29T23:13:31.041Z,0
2022-09-29T23:15:10.915Z,0
2022-09-29T23:18:30.331Z,0
2022-09-29T23:20:10.090Z,0
2022-09-29T23:21:49.893Z,0
2022-09-29T23:23:29.707Z,0
2022-09-29T23:25:09.492Z,0
2022-09-29T23:28:28.924Z,0
2022-09-29T23:30:08.776Z,0
2022-09-29T23:31:48.574Z,0
2022-09-29T23:33:28.319Z,0
2022-09-29T23:35:08.093Z,0
2022-09-29T23:36:47.873Z,0
2022-09-29T23:38:27.485Z,0
2022-09-29T23:40:07.253Z,0
2022-09-29T23:41:47.018Z,0
2022-09-29T23:43:26.786Z,0
2022-09-29T23:45:06.642Z,0
2022-09-29T23:46:46.349Z,0
2022-09-29T23:48:26.133Z,0
2022-09-29T23:50:05.910Z,0
2022-09-29T23:51:45.702Z,0
2022-09-29T23:53:25.507Z,0
2022-09-29T23:55:05.173Z,0
2022-09-29T23:58:24.785Z,0
